sensor_id;sensor_type;location;lat;lon;timestamp;P1;durP1;ratioP1;P2;durP2;ratioP2
56321;SDS011;42227;6.376;-10.782;2024-01-30T00:01:50;96.90;;;38.72;;
56321;SDS011;42227;6.376;-10.782;2024-01-30T00:04:19;77.00;;;45.55;;
56321;SDS011;42227;6.376;-10.782;2024-01-30T00:06:47;96.68;;;45.75;;
56321;SDS011;42227;6.376;-10.782;2024-01-30T00:09:17;111.60;;;61.22;;
56321;SDS011;42227;6.376;-10.782;2024-01-30T00:11:46;96.32;;;59.55;;
56321;SDS011;42227;6.376;-10.782;2024-01-30T00:14:14;98.72;;;58.83;;
56321;SDS011;42227;6.376;-10.782;2024-01-30T00:16:43;101.78;;;52.85;;
56321;SDS011;42227;6.376;-10.782;2024-01-30T00:19:11;88.13;;;48.15;;
56321;SDS011;42227;6.376;-10.782;2024-01-30T00:21:40;91.57;;;53.42;;
56321;SDS011;42227;6.376;-10.782;2024-01-30T00:24:09;86.15;;;51.70;;
56321;SDS011;42227;6.376;-10.782;2024-01-30T00:26:37;101.75;;;61.15;;
56321;SDS011;42227;6.376;-10.782;2024-01-30T00:29:06;103.65;;;62.70;;
56321;SDS011;42227;6.376;-10.782;2024-01-30T00:31:35;89.18;;;58.08;;
56321;SDS011;42227;6.376;-10.782;2024-01-30T00:34:08;108.28;;;62.22;;
56321;SDS011;42227;6.376;-10.782;2024-01-30T00:36:36;98.88;;;61.17;;
56321;SDS011;42227;6.376;-10.782;2024-01-30T00:39:05;95.90;;;59.95;;
56321;SDS011;42227;6.376;-10.782;2024-01-30T00:41:33;142.05;;;74.68;;
56321;SDS011;42227;6.376;-10.782;2024-01-30T00:44:02;129.40;;;73.10;;
56321;SDS011;42227;6.376;-10.782;2024-01-30T00:46:30;123.28;;;67.43;;
56321;SDS011;42227;6.376;-10.782;2024-01-30T00:49:00;114.88;;;55.55;;
56321;SDS011;42227;6.376;-10.782;2024-01-30T00:51:32;120.55;;;60.95;;
56321;SDS011;42227;6.376;-10.782;2024-01-30T00:54:00;114.57;;;66.10;;
56321;SDS011;42227;6.376;-10.782;2024-01-30T00:56:29;135.77;;;73.63;;
56321;SDS011;42227;6.376;-10.782;2024-01-30T00:58:57;136.82;;;72.20;;
56321;SDS011;42227;6.376;-10.782;2024-01-30T01:01:26;92.65;;;59.58;;
56321;SDS011;42227;6.376;-10.782;2024-01-30T01:03:54;88.80;;;45.92;;
56321;SDS011;42227;6.376;-10.782;2024-01-30T01:06:23;94.22;;;51.20;;
56321;SDS011;42227;6.376;-10.782;2024-01-30T01:08:51;82.30;;;52.05;;
56321;SDS011;42227;6.376;-10.782;2024-01-30T01:11:20;110.93;;;55.15;;
56321;SDS011;42227;6.376;-10.782;2024-01-30T01:13:49;108.50;;;53.88;;
56321;SDS011;42227;6.376;-10.782;2024-01-30T01:16:17;104.28;;;52.97;;
56321;SDS011;42227;6.376;-10.782;2024-01-30T01:18:46;97.82;;;54.60;;
56321;SDS011;42227;6.376;-10.782;2024-01-30T01:21:15;93.75;;;50.30;;
56321;SDS011;42227;6.376;-10.782;2024-01-30T01:23:43;88.38;;;52.50;;
56321;SDS011;42227;6.376;-10.782;2024-01-30T01:26:12;69.93;;;43.85;;
56321;SDS011;42227;6.376;-10.782;2024-01-30T01:28:40;78.15;;;44.00;;
56321;SDS011;42227;6.376;-10.782;2024-01-30T01:31:09;75.53;;;40.17;;
56321;SDS011;42227;6.376;-10.782;2024-01-30T01:33:38;92.35;;;47.30;;
56321;SDS011;42227;6.376;-10.782;2024-01-30T01:36:07;65.97;;;38.03;;
56321;SDS011;42227;6.376;-10.782;2024-01-30T01:38:36;83.75;;;40.85;;
56321;SDS011;42227;6.376;-10.782;2024-01-30T01:41:05;66.75;;;37.95;;
56321;SDS011;42227;6.376;-10.782;2024-01-30T01:43:33;87.03;;;40.45;;
56321;SDS011;42227;6.376;-10.782;2024-01-30T01:46:01;87.20;;;43.00;;
56321;SDS011;42227;6.376;-10.782;2024-01-30T01:48:30;81.95;;;41.55;;
56321;SDS011;42227;6.376;-10.782;2024-01-30T01:50:59;86.88;;;41.92;;
56321;SDS011;42227;6.376;-10.782;2024-01-30T01:53:28;61.45;;;30.42;;
56321;SDS011;42227;6.376;-10.782;2024-01-30T01:55:56;65.78;;;29.75;;
56321;SDS011;42227;6.376;-10.782;2024-01-30T01:58:25;66.05;;;31.42;;
56321;SDS011;42227;6.376;-10.782;2024-01-30T02:00:58;61.47;;;29.63;;
56321;SDS011;42227;6.376;-10.782;2024-01-30T02:03:29;41.50;;;26.50;;
56321;SDS011;42227;6.376;-10.782;2024-01-30T02:05:58;65.22;;;35.05;;
56321;SDS011;42227;6.376;-10.782;2024-01-30T02:08:27;51.05;;;31.17;;
56321;SDS011;42227;6.376;-10.782;2024-01-30T02:10:55;57.55;;;31.58;;
56321;SDS011;42227;6.376;-10.782;2024-01-30T02:13:24;64.15;;;34.33;;
56321;SDS011;42227;6.376;-10.782;2024-01-30T02:15:52;55.67;;;34.05;;
56321;SDS011;42227;6.376;-10.782;2024-01-30T02:18:22;55.85;;;26.15;;
56321;SDS011;42227;6.376;-10.782;2024-01-30T02:20:51;46.50;;;25.30;;
56321;SDS011;42227;6.376;-10.782;2024-01-30T02:23:26;40.88;;;26.38;;
56321;SDS011;42227;6.376;-10.782;2024-01-30T02:28:23;79.60;;;37.28;;
56321;SDS011;42227;6.376;-10.782;2024-01-30T02:30:53;71.25;;;35.78;;
56321;SDS011;42227;6.376;-10.782;2024-01-30T02:33:21;68.75;;;32.80;;
56321;SDS011;42227;6.376;-10.782;2024-01-30T02:35:50;57.83;;;28.10;;
56321;SDS011;42227;6.376;-10.782;2024-01-30T02:38:18;59.58;;;30.38;;
56321;SDS011;42227;6.376;-10.782;2024-01-30T02:40:47;63.45;;;32.38;;
56321;SDS011;42227;6.376;-10.782;2024-01-30T02:43:15;64.30;;;35.40;;
56321;SDS011;42227;6.376;-10.782;2024-01-30T02:45:44;78.40;;;39.83;;
56321;SDS011;42227;6.376;-10.782;2024-01-30T02:48:13;77.50;;;34.03;;
56321;SDS011;42227;6.376;-10.782;2024-01-30T02:50:41;58.55;;;29.13;;
56321;SDS011;42227;6.376;-10.782;2024-01-30T02:53:10;67.43;;;32.85;;
56321;SDS011;42227;6.376;-10.782;2024-01-30T02:55:39;55.40;;;33.75;;
56321;SDS011;42227;6.376;-10.782;2024-01-30T02:58:07;73.15;;;36.33;;
56321;SDS011;42227;6.376;-10.782;2024-01-30T03:00:37;72.60;;;35.22;;
56321;SDS011;42227;6.376;-10.782;2024-01-30T03:03:06;62.50;;;30.45;;
56321;SDS011;42227;6.376;-10.782;2024-01-30T03:05:34;76.88;;;32.92;;
56321;SDS011;42227;6.376;-10.782;2024-01-30T03:08:04;52.33;;;31.60;;
56321;SDS011;42227;6.376;-10.782;2024-01-30T03:10:33;51.42;;;31.10;;
56321;SDS011;42227;6.376;-10.782;2024-01-30T03:13:01;84.25;;;39.13;;
56321;SDS011;42227;6.376;-10.782;2024-01-30T03:15:30;63.50;;;30.10;;
56321;SDS011;42227;6.376;-10.782;2024-01-30T03:17:59;59.03;;;33.03;;
56321;SDS011;42227;6.376;-10.782;2024-01-30T03:20:27;48.33;;;30.15;;
56321;SDS011;42227;6.376;-10.782;2024-01-30T03:22:56;65.40;;;33.83;;
56321;SDS011;42227;6.376;-10.782;2024-01-30T03:25:24;58.80;;;29.70;;
56321;SDS011;42227;6.376;-10.782;2024-01-30T03:27:53;73.85;;;38.17;;
56321;SDS011;42227;6.376;-10.782;2024-01-30T03:30:21;74.72;;;35.20;;
56321;SDS011;42227;6.376;-10.782;2024-01-30T03:32:51;70.43;;;35.60;;
56321;SDS011;42227;6.376;-10.782;2024-01-30T03:35:20;75.82;;;38.70;;
56321;SDS011;42227;6.376;-10.782;2024-01-30T03:37:49;61.03;;;34.10;;
56321;SDS011;42227;6.376;-10.782;2024-01-30T03:40:17;83.35;;;33.75;;
56321;SDS011;42227;6.376;-10.782;2024-01-30T03:42:47;52.22;;;31.70;;
56321;SDS011;42227;6.376;-10.782;2024-01-30T03:45:15;56.70;;;32.35;;
56321;SDS011;42227;6.376;-10.782;2024-01-30T03:47:44;62.67;;;33.28;;
56321;SDS011;42227;6.376;-10.782;2024-01-30T03:50:13;73.70;;;35.75;;
56321;SDS011;42227;6.376;-10.782;2024-01-30T03:52:41;62.70;;;35.15;;
56321;SDS011;42227;6.376;-10.782;2024-01-30T03:55:10;72.53;;;41.47;;
56321;SDS011;42227;6.376;-10.782;2024-01-30T03:57:38;78.13;;;38.95;;
56321;SDS011;42227;6.376;-10.782;2024-01-30T04:00:07;77.85;;;40.75;;
56321;SDS011;42227;6.376;-10.782;2024-01-30T04:02:39;68.47;;;35.75;;
56321;SDS011;42227;6.376;-10.782;2024-01-30T04:05:08;79.75;;;42.00;;
56321;SDS011;42227;6.376;-10.782;2024-01-30T04:07:36;62.72;;;33.63;;
56321;SDS011;42227;6.376;-10.782;2024-01-30T04:10:05;62.17;;;37.17;;
56321;SDS011;42227;6.376;-10.782;2024-01-30T04:12:34;66.32;;;34.10;;
56321;SDS011;42227;6.376;-10.782;2024-01-30T04:15:02;112.97;;;58.58;;
56321;SDS011;42227;6.376;-10.782;2024-01-30T04:17:31;112.10;;;66.35;;
56321;SDS011;42227;6.376;-10.782;2024-01-30T04:19:59;112.72;;;66.25;;
56321;SDS011;42227;6.376;-10.782;2024-01-30T04:22:28;117.65;;;76.57;;
56321;SDS011;42227;6.376;-10.782;2024-01-30T04:24:57;126.80;;;70.03;;
56321;SDS011;42227;6.376;-10.782;2024-01-30T04:27:25;109.88;;;68.28;;
56321;SDS011;42227;6.376;-10.782;2024-01-30T04:29:54;117.50;;;66.22;;
56321;SDS011;42227;6.376;-10.782;2024-01-30T04:32:22;119.90;;;69.40;;
56321;SDS011;42227;6.376;-10.782;2024-01-30T04:34:51;109.82;;;66.78;;
56321;SDS011;42227;6.376;-10.782;2024-01-30T04:37:19;108.93;;;63.17;;
56321;SDS011;42227;6.376;-10.782;2024-01-30T04:39:48;111.93;;;65.00;;
56321;SDS011;42227;6.376;-10.782;2024-01-30T04:42:16;104.88;;;58.60;;
56321;SDS011;42227;6.376;-10.782;2024-01-30T04:44:45;90.75;;;56.53;;
56321;SDS011;42227;6.376;-10.782;2024-01-30T04:47:13;99.97;;;53.58;;
56321;SDS011;42227;6.376;-10.782;2024-01-30T04:49:42;95.45;;;55.65;;
56321;SDS011;42227;6.376;-10.782;2024-01-30T04:52:11;89.57;;;53.33;;
56321;SDS011;42227;6.376;-10.782;2024-01-30T04:54:39;96.65;;;51.55;;
56321;SDS011;42227;6.376;-10.782;2024-01-30T04:57:07;92.32;;;51.47;;
56321;SDS011;42227;6.376;-10.782;2024-01-30T04:59:36;90.13;;;49.20;;
56321;SDS011;42227;6.376;-10.782;2024-01-30T05:02:04;100.00;;;50.65;;
56321;SDS011;42227;6.376;-10.782;2024-01-30T05:04:33;81.80;;;46.22;;
56321;SDS011;42227;6.376;-10.782;2024-01-30T05:07:02;90.10;;;50.78;;
56321;SDS011;42227;6.376;-10.782;2024-01-30T05:09:30;88.90;;;48.70;;
56321;SDS011;42227;6.376;-10.782;2024-01-30T05:11:59;81.43;;;49.28;;
56321;SDS011;42227;6.376;-10.782;2024-01-30T05:14:27;83.47;;;49.78;;
56321;SDS011;42227;6.376;-10.782;2024-01-30T05:16:55;81.13;;;47.20;;
56321;SDS011;42227;6.376;-10.782;2024-01-30T05:19:24;72.50;;;46.72;;
56321;SDS011;42227;6.376;-10.782;2024-01-30T05:21:52;72.32;;;42.97;;
56321;SDS011;42227;6.376;-10.782;2024-01-30T05:24:21;80.78;;;44.60;;
56321;SDS011;42227;6.376;-10.782;2024-01-30T05:26:52;86.85;;;46.25;;
56321;SDS011;42227;6.376;-10.782;2024-01-30T05:29:21;78.10;;;46.33;;
56321;SDS011;42227;6.376;-10.782;2024-01-30T05:31:49;86.88;;;45.95;;
56321;SDS011;42227;6.376;-10.782;2024-01-30T05:34:17;102.95;;;50.05;;
56321;SDS011;42227;6.376;-10.782;2024-01-30T05:36:46;81.38;;;46.72;;
56321;SDS011;42227;6.376;-10.782;2024-01-30T05:39:14;66.82;;;40.50;;
56321;SDS011;42227;6.376;-10.782;2024-01-30T05:41:43;88.22;;;45.08;;
56321;SDS011;42227;6.376;-10.782;2024-01-30T05:44:11;83.82;;;44.28;;
56321;SDS011;42227;6.376;-10.782;2024-01-30T05:46:40;93.93;;;43.08;;
56321;SDS011;42227;6.376;-10.782;2024-01-30T05:49:08;62.63;;;39.50;;
56321;SDS011;42227;6.376;-10.782;2024-01-30T05:51:37;65.22;;;43.22;;
56321;SDS011;42227;6.376;-10.782;2024-01-30T05:54:05;80.97;;;44.58;;
56321;SDS011;42227;6.376;-10.782;2024-01-30T05:56:33;79.90;;;42.53;;
56321;SDS011;42227;6.376;-10.782;2024-01-30T05:59:02;62.53;;;43.60;;
56321;SDS011;42227;6.376;-10.782;2024-01-30T06:01:30;92.60;;;48.97;;
56321;SDS011;42227;6.376;-10.782;2024-01-30T06:03:58;66.18;;;43.28;;
56321;SDS011;42227;6.376;-10.782;2024-01-30T06:06:27;73.30;;;44.83;;
56321;SDS011;42227;6.376;-10.782;2024-01-30T06:08:55;75.97;;;46.35;;
56321;SDS011;42227;6.376;-10.782;2024-01-30T06:11:24;65.25;;;45.33;;
56321;SDS011;42227;6.376;-10.782;2024-01-30T06:13:52;72.43;;;44.78;;
56321;SDS011;42227;6.376;-10.782;2024-01-30T06:16:24;69.85;;;42.90;;
56321;SDS011;42227;6.376;-10.782;2024-01-30T06:18:52;86.40;;;42.03;;
56321;SDS011;42227;6.376;-10.782;2024-01-30T06:21:21;67.88;;;39.03;;
56321;SDS011;42227;6.376;-10.782;2024-01-30T06:23:49;69.70;;;36.45;;
56321;SDS011;42227;6.376;-10.782;2024-01-30T06:26:17;63.03;;;37.20;;
56321;SDS011;42227;6.376;-10.782;2024-01-30T06:28:46;70.18;;;37.97;;
56321;SDS011;42227;6.376;-10.782;2024-01-30T06:31:14;60.85;;;35.22;;
56321;SDS011;42227;6.376;-10.782;2024-01-30T06:33:43;68.10;;;35.85;;
56321;SDS011;42227;6.376;-10.782;2024-01-30T06:36:14;62.40;;;38.03;;
56321;SDS011;42227;6.376;-10.782;2024-01-30T06:38:42;69.68;;;42.55;;
56321;SDS011;42227;6.376;-10.782;2024-01-30T06:41:10;79.60;;;43.67;;
56321;SDS011;42227;6.376;-10.782;2024-01-30T06:43:39;81.85;;;42.90;;
56321;SDS011;42227;6.376;-10.782;2024-01-30T06:46:07;74.13;;;46.65;;
56321;SDS011;42227;6.376;-10.782;2024-01-30T06:48:36;73.45;;;47.38;;
56321;SDS011;42227;6.376;-10.782;2024-01-30T06:51:04;75.20;;;45.90;;
56321;SDS011;42227;6.376;-10.782;2024-01-30T06:53:32;77.60;;;46.58;;
56321;SDS011;42227;6.376;-10.782;2024-01-30T06:56:02;87.80;;;47.42;;
56321;SDS011;42227;6.376;-10.782;2024-01-30T06:58:30;91.28;;;41.75;;
56321;SDS011;42227;6.376;-10.782;2024-01-30T07:00:59;66.13;;;37.45;;
56321;SDS011;42227;6.376;-10.782;2024-01-30T07:03:27;71.57;;;39.10;;
56321;SDS011;42227;6.376;-10.782;2024-01-30T07:05:56;75.70;;;44.10;;
56321;SDS011;42227;6.376;-10.782;2024-01-30T07:08:24;90.32;;;44.00;;
56321;SDS011;42227;6.376;-10.782;2024-01-30T07:10:53;74.45;;;39.13;;
56321;SDS011;42227;6.376;-10.782;2024-01-30T07:13:24;62.75;;;40.10;;
56321;SDS011;42227;6.376;-10.782;2024-01-30T07:15:52;68.60;;;39.35;;
56321;SDS011;42227;6.376;-10.782;2024-01-30T07:18:21;63.75;;;37.65;;
56321;SDS011;42227;6.376;-10.782;2024-01-30T07:20:49;67.13;;;40.40;;
56321;SDS011;42227;6.376;-10.782;2024-01-30T07:23:18;67.88;;;34.60;;
56321;SDS011;42227;6.376;-10.782;2024-01-30T07:25:46;77.55;;;39.53;;
56321;SDS011;42227;6.376;-10.782;2024-01-30T07:28:17;84.55;;;39.17;;
56321;SDS011;42227;6.376;-10.782;2024-01-30T07:30:46;66.22;;;36.50;;
56321;SDS011;42227;6.376;-10.782;2024-01-30T07:33:14;65.72;;;41.78;;
56321;SDS011;42227;6.376;-10.782;2024-01-30T07:35:43;56.13;;;40.40;;
56321;SDS011;42227;6.376;-10.782;2024-01-30T07:38:13;72.25;;;38.80;;
56321;SDS011;42227;6.376;-10.782;2024-01-30T07:40:41;77.82;;;40.10;;
56321;SDS011;42227;6.376;-10.782;2024-01-30T07:43:09;64.90;;;39.80;;
56321;SDS011;42227;6.376;-10.782;2024-01-30T07:45:38;75.70;;;45.08;;
56321;SDS011;42227;6.376;-10.782;2024-01-30T07:48:06;72.15;;;38.83;;
56321;SDS011;42227;6.376;-10.782;2024-01-30T07:50:35;71.28;;;36.22;;
56321;SDS011;42227;6.376;-10.782;2024-01-30T07:53:04;66.10;;;37.40;;
56321;SDS011;42227;6.376;-10.782;2024-01-30T07:55:32;67.60;;;36.33;;
56321;SDS011;42227;6.376;-10.782;2024-01-30T07:58:00;67.78;;;37.92;;
56321;SDS011;42227;6.376;-10.782;2024-01-30T08:00:29;60.88;;;37.28;;
56321;SDS011;42227;6.376;-10.782;2024-01-30T08:02:58;64.28;;;42.50;;
56321;SDS011;42227;6.376;-10.782;2024-01-30T08:05:26;96.82;;;37.85;;
56321;SDS011;42227;6.376;-10.782;2024-01-30T08:07:54;62.95;;;33.63;;
56321;SDS011;42227;6.376;-10.782;2024-01-30T08:10:23;58.03;;;32.53;;
56321;SDS011;42227;6.376;-10.782;2024-01-30T08:12:51;62.17;;;38.67;;
56321;SDS011;42227;6.376;-10.782;2024-01-30T08:15:20;51.05;;;29.98;;
56321;SDS011;42227;6.376;-10.782;2024-01-30T08:17:48;57.25;;;32.15;;
56321;SDS011;42227;6.376;-10.782;2024-01-30T08:20:16;75.05;;;28.58;;
56321;SDS011;42227;6.376;-10.782;2024-01-30T08:22:45;58.33;;;30.00;;
56321;SDS011;42227;6.376;-10.782;2024-01-30T08:25:13;53.13;;;31.73;;
56321;SDS011;42227;6.376;-10.782;2024-01-30T08:27:42;63.88;;;31.95;;
56321;SDS011;42227;6.376;-10.782;2024-01-30T08:30:11;49.70;;;28.65;;
56321;SDS011;42227;6.376;-10.782;2024-01-30T08:32:40;68.75;;;31.23;;
56321;SDS011;42227;6.376;-10.782;2024-01-30T08:35:08;57.33;;;31.30;;
56321;SDS011;42227;6.376;-10.782;2024-01-30T08:37:37;55.75;;;28.98;;
56321;SDS011;42227;6.376;-10.782;2024-01-30T08:40:08;62.50;;;29.65;;
56321;SDS011;42227;6.376;-10.782;2024-01-30T08:42:37;50.72;;;30.65;;
56321;SDS011;42227;6.376;-10.782;2024-01-30T08:45:05;51.33;;;29.95;;
56321;SDS011;42227;6.376;-10.782;2024-01-30T08:47:34;59.00;;;31.35;;
56321;SDS011;42227;6.376;-10.782;2024-01-30T08:50:03;53.20;;;29.98;;
56321;SDS011;42227;6.376;-10.782;2024-01-30T08:52:31;61.55;;;27.20;;
56321;SDS011;42227;6.376;-10.782;2024-01-30T08:55:00;55.13;;;28.05;;
56321;SDS011;42227;6.376;-10.782;2024-01-30T08:57:29;58.35;;;27.55;;
56321;SDS011;42227;6.376;-10.782;2024-01-30T08:59:57;57.17;;;27.85;;
56321;SDS011;42227;6.376;-10.782;2024-01-30T09:02:25;56.20;;;27.00;;
56321;SDS011;42227;6.376;-10.782;2024-01-30T09:04:54;46.83;;;25.25;;
56321;SDS011;42227;6.376;-10.782;2024-01-30T09:07:22;38.80;;;22.77;;
56321;SDS011;42227;6.376;-10.782;2024-01-30T09:09:51;51.75;;;24.42;;
56321;SDS011;42227;6.376;-10.782;2024-01-30T09:12:19;38.67;;;23.88;;
56321;SDS011;42227;6.376;-10.782;2024-01-30T09:14:48;52.83;;;26.60;;
56321;SDS011;42227;6.376;-10.782;2024-01-30T09:17:16;46.65;;;24.35;;
56321;SDS011;42227;6.376;-10.782;2024-01-30T09:19:46;38.17;;;23.38;;
56321;SDS011;42227;6.376;-10.782;2024-01-30T09:22:14;44.72;;;25.70;;
56321;SDS011;42227;6.376;-10.782;2024-01-30T09:24:43;60.83;;;27.88;;
56321;SDS011;42227;6.376;-10.782;2024-01-30T09:27:11;35.85;;;23.17;;
56321;SDS011;42227;6.376;-10.782;2024-01-30T09:29:40;67.13;;;28.38;;
56321;SDS011;42227;6.376;-10.782;2024-01-30T09:32:10;54.45;;;26.77;;
56321;SDS011;42227;6.376;-10.782;2024-01-30T09:34:38;65.90;;;28.75;;
56321;SDS011;42227;6.376;-10.782;2024-01-30T09:37:07;37.92;;;23.42;;
56321;SDS011;42227;6.376;-10.782;2024-01-30T09:39:35;38.38;;;24.73;;
56321;SDS011;42227;6.376;-10.782;2024-01-30T09:45:04;52.65;;;23.75;;
56321;SDS011;42227;6.376;-10.782;2024-01-30T09:47:39;47.58;;;22.50;;
56321;SDS011;42227;6.376;-10.782;2024-01-30T09:50:10;46.25;;;22.42;;
56321;SDS011;42227;6.376;-10.782;2024-01-30T09:52:40;46.50;;;24.30;;
56321;SDS011;42227;6.376;-10.782;2024-01-30T09:55:13;43.00;;;22.38;;
56321;SDS011;42227;6.376;-10.782;2024-01-30T09:57:42;46.25;;;23.30;;
56321;SDS011;42227;6.376;-10.782;2024-01-30T10:00:11;38.58;;;22.38;;
56321;SDS011;42227;6.376;-10.782;2024-01-30T10:02:40;35.47;;;20.58;;
56321;SDS011;42227;6.376;-10.782;2024-01-30T10:05:08;46.40;;;22.10;;
56321;SDS011;42227;6.376;-10.782;2024-01-30T10:07:38;56.85;;;23.40;;
56321;SDS011;42227;6.376;-10.782;2024-01-30T10:10:17;52.70;;;25.55;;
56321;SDS011;42227;6.376;-10.782;2024-01-30T10:12:45;41.90;;;22.92;;
56321;SDS011;42227;6.376;-10.782;2024-01-30T10:15:14;40.90;;;22.95;;
56321;SDS011;42227;6.376;-10.782;2024-01-30T10:17:43;54.33;;;24.70;;
56321;SDS011;42227;6.376;-10.782;2024-01-30T10:20:12;51.17;;;24.25;;
56321;SDS011;42227;6.376;-10.782;2024-01-30T10:22:41;45.33;;;22.58;;
56321;SDS011;42227;6.376;-10.782;2024-01-30T10:25:09;34.53;;;20.00;;
56321;SDS011;42227;6.376;-10.782;2024-01-30T10:27:39;42.80;;;18.83;;
56321;SDS011;42227;6.376;-10.782;2024-01-30T10:30:08;48.67;;;21.38;;
56321;SDS011;42227;6.376;-10.782;2024-01-30T10:32:36;39.97;;;17.77;;
56321;SDS011;42227;6.376;-10.782;2024-01-30T10:35:04;50.67;;;18.15;;
56321;SDS011;42227;6.376;-10.782;2024-01-30T10:37:33;48.03;;;21.35;;
56321;SDS011;42227;6.376;-10.782;2024-01-30T10:40:03;50.45;;;22.90;;
56321;SDS011;42227;6.376;-10.782;2024-01-30T10:42:32;41.33;;;21.38;;
56321;SDS011;42227;6.376;-10.782;2024-01-30T10:45:07;45.13;;;23.08;;
56321;SDS011;42227;6.376;-10.782;2024-01-30T10:47:37;43.88;;;20.95;;
56321;SDS011;42227;6.376;-10.782;2024-01-30T10:50:11;35.13;;;20.35;;
56321;SDS011;42227;6.376;-10.782;2024-01-30T10:52:40;44.28;;;19.95;;
56321;SDS011;42227;6.376;-10.782;2024-01-30T10:55:09;50.15;;;19.83;;
56321;SDS011;42227;6.376;-10.782;2024-01-30T10:57:38;60.70;;;22.27;;
56321;SDS011;42227;6.376;-10.782;2024-01-30T11:00:10;41.72;;;21.40;;
56321;SDS011;42227;6.376;-10.782;2024-01-30T11:02:40;43.05;;;18.63;;
56321;SDS011;42227;6.376;-10.782;2024-01-30T11:05:10;48.38;;;20.00;;
56321;SDS011;42227;6.376;-10.782;2024-01-30T11:07:39;43.75;;;20.45;;
56321;SDS011;42227;6.376;-10.782;2024-01-30T11:10:08;47.80;;;18.88;;
56321;SDS011;42227;6.376;-10.782;2024-01-30T11:12:37;38.67;;;19.90;;
56321;SDS011;42227;6.376;-10.782;2024-01-30T11:15:08;33.45;;;16.05;;
56321;SDS011;42227;6.376;-10.782;2024-01-30T11:20:25;44.55;;;18.45;;
56321;SDS011;42227;6.376;-10.782;2024-01-30T11:22:55;39.45;;;19.60;;
56321;SDS011;42227;6.376;-10.782;2024-01-30T11:25:25;35.65;;;17.08;;
56321;SDS011;42227;6.376;-10.782;2024-01-30T11:27:54;44.50;;;16.33;;
56321;SDS011;42227;6.376;-10.782;2024-01-30T11:30:26;27.00;;;15.18;;
56321;SDS011;42227;6.376;-10.782;2024-01-30T11:33:00;50.97;;;19.58;;
56321;SDS011;42227;6.376;-10.782;2024-01-30T11:35:49;29.75;;;16.38;;
56321;SDS011;42227;6.376;-10.782;2024-01-30T11:38:18;38.40;;;18.88;;
56321;SDS011;42227;6.376;-10.782;2024-01-30T11:40:47;36.97;;;16.30;;
56321;SDS011;42227;6.376;-10.782;2024-01-30T11:44:13;41.47;;;18.25;;
56321;SDS011;42227;6.376;-10.782;2024-01-30T11:46:42;34.53;;;17.63;;
56321;SDS011;42227;6.376;-10.782;2024-01-30T11:49:11;53.97;;;22.05;;
56321;SDS011;42227;6.376;-10.782;2024-01-30T11:51:39;35.67;;;18.27;;
56321;SDS011;42227;6.376;-10.782;2024-01-30T11:54:08;29.52;;;16.52;;
56321;SDS011;42227;6.376;-10.782;2024-01-30T11:56:37;36.72;;;19.73;;
56321;SDS011;42227;6.376;-10.782;2024-01-30T11:59:05;45.75;;;22.13;;
56321;SDS011;42227;6.376;-10.782;2024-01-30T12:01:34;46.00;;;20.80;;
56321;SDS011;42227;6.376;-10.782;2024-01-30T12:04:02;39.05;;;20.60;;
56321;SDS011;42227;6.376;-10.782;2024-01-30T12:06:32;49.20;;;19.38;;
56321;SDS011;42227;6.376;-10.782;2024-01-30T12:09:01;32.92;;;17.45;;
56321;SDS011;42227;6.376;-10.782;2024-01-30T12:11:30;30.90;;;17.55;;
56321;SDS011;42227;6.376;-10.782;2024-01-30T12:13:58;34.80;;;16.30;;
56321;SDS011;42227;6.376;-10.782;2024-01-30T12:16:27;36.42;;;17.85;;
56321;SDS011;42227;6.376;-10.782;2024-01-30T12:18:59;50.72;;;21.60;;
56321;SDS011;42227;6.376;-10.782;2024-01-30T12:21:28;40.92;;;17.80;;
56321;SDS011;42227;6.376;-10.782;2024-01-30T12:23:57;25.15;;;14.10;;
56321;SDS011;42227;6.376;-10.782;2024-01-30T12:26:27;31.67;;;15.65;;
56321;SDS011;42227;6.376;-10.782;2024-01-30T12:28:56;23.58;;;15.50;;
56321;SDS011;42227;6.376;-10.782;2024-01-30T12:31:26;34.35;;;17.67;;
56321;SDS011;42227;6.376;-10.782;2024-01-30T12:33:55;41.10;;;15.88;;
56321;SDS011;42227;6.376;-10.782;2024-01-30T12:36:25;36.38;;;18.23;;
56321;SDS011;42227;6.376;-10.782;2024-01-30T12:38:54;41.72;;;16.63;;
56321;SDS011;42227;6.376;-10.782;2024-01-30T12:41:25;33.05;;;17.38;;
56321;SDS011;42227;6.376;-10.782;2024-01-30T12:43:54;40.50;;;20.00;;
56321;SDS011;42227;6.376;-10.782;2024-01-30T12:46:27;47.90;;;24.45;;
56321;SDS011;42227;6.376;-10.782;2024-01-30T12:48:56;33.10;;;18.70;;
56321;SDS011;42227;6.376;-10.782;2024-01-30T12:51:25;53.60;;;18.35;;
56321;SDS011;42227;6.376;-10.782;2024-01-30T12:53:53;53.47;;;17.27;;
56321;SDS011;42227;6.376;-10.782;2024-01-30T12:56:22;59.28;;;20.42;;
56321;SDS011;42227;6.376;-10.782;2024-01-30T12:58:51;34.50;;;17.42;;
56321;SDS011;42227;6.376;-10.782;2024-01-30T13:01:21;84.93;;;44.95;;
56321;SDS011;42227;6.376;-10.782;2024-01-30T13:03:50;60.63;;;19.60;;
56321;SDS011;42227;6.376;-10.782;2024-01-30T13:06:20;49.95;;;28.92;;
56321;SDS011;42227;6.376;-10.782;2024-01-30T13:08:48;49.75;;;24.38;;
56321;SDS011;42227;6.376;-10.782;2024-01-30T13:11:17;40.85;;;20.85;;
56321;SDS011;42227;6.376;-10.782;2024-01-30T13:13:47;43.08;;;18.20;;
56321;SDS011;42227;6.376;-10.782;2024-01-30T13:16:16;43.17;;;18.23;;
56321;SDS011;42227;6.376;-10.782;2024-01-30T13:18:45;35.28;;;17.10;;
56321;SDS011;42227;6.376;-10.782;2024-01-30T13:21:13;40.35;;;18.95;;
56321;SDS011;42227;6.376;-10.782;2024-01-30T13:23:41;48.17;;;18.48;;
56321;SDS011;42227;6.376;-10.782;2024-01-30T13:26:10;38.72;;;18.13;;
56321;SDS011;42227;6.376;-10.782;2024-01-30T13:28:38;51.72;;;20.73;;
56321;SDS011;42227;6.376;-10.782;2024-01-30T13:31:06;48.97;;;26.58;;
56321;SDS011;42227;6.376;-10.782;2024-01-30T13:33:35;23.90;;;16.23;;
56321;SDS011;42227;6.376;-10.782;2024-01-30T13:36:03;45.45;;;18.83;;
56321;SDS011;42227;6.376;-10.782;2024-01-30T13:38:32;60.70;;;27.35;;
56321;SDS011;42227;6.376;-10.782;2024-01-30T13:41:00;47.80;;;21.38;;
56321;SDS011;42227;6.376;-10.782;2024-01-30T13:43:29;44.35;;;23.88;;
56321;SDS011;42227;6.376;-10.782;2024-01-30T13:45:58;68.28;;;19.35;;
56321;SDS011;42227;6.376;-10.782;2024-01-30T13:48:27;40.95;;;22.25;;
56321;SDS011;42227;6.376;-10.782;2024-01-30T13:50:55;62.70;;;32.40;;
56321;SDS011;42227;6.376;-10.782;2024-01-30T13:53:23;33.30;;;21.05;;
56321;SDS011;42227;6.376;-10.782;2024-01-30T13:55:52;56.13;;;21.48;;
56321;SDS011;42227;6.376;-10.782;2024-01-30T13:58:20;54.10;;;21.63;;
56321;SDS011;42227;6.376;-10.782;2024-01-30T14:00:49;44.92;;;19.30;;
56321;SDS011;42227;6.376;-10.782;2024-01-30T14:03:17;45.17;;;18.05;;
56321;SDS011;42227;6.376;-10.782;2024-01-30T14:05:46;62.75;;;36.38;;
56321;SDS011;42227;6.376;-10.782;2024-01-30T14:08:14;49.60;;;22.35;;
56321;SDS011;42227;6.376;-10.782;2024-01-30T14:10:43;45.17;;;22.35;;
56321;SDS011;42227;6.376;-10.782;2024-01-30T14:13:12;66.20;;;33.53;;
56321;SDS011;42227;6.376;-10.782;2024-01-30T14:15:40;53.42;;;23.58;;
56321;SDS011;42227;6.376;-10.782;2024-01-30T14:18:09;109.10;;;58.13;;
56321;SDS011;42227;6.376;-10.782;2024-01-30T14:20:37;73.55;;;38.92;;
56321;SDS011;42227;6.376;-10.782;2024-01-30T14:23:06;46.83;;;22.25;;
56321;SDS011;42227;6.376;-10.782;2024-01-30T14:25:34;51.80;;;23.45;;
56321;SDS011;42227;6.376;-10.782;2024-01-30T14:28:02;73.20;;;34.55;;